sensor_id;sensor_type;location;lat;lon;timestamp;P1;durP1;ratioP1;P2;durP2;ratioP2
2564;SDS011;1292;48.020;7.822;2023-04-06T05:47:10;6.67;;;5.30;;
2564;SDS011;1292;48.020;7.822;2023-04-06T05:49:37;9.77;;;6.10;;
2564;SDS011;1292;48.020;7.822;2023-04-06T05:52:04;5.30;;;4.27;;
2564;SDS011;1292;48.020;7.822;2023-04-06T05:54:30;8.53;;;6.03;;
2564;SDS011;1292;48.020;7.822;2023-04-06T05:56:57;7.80;;;5.67;;
2564;SDS011;1292;48.020;7.822;2023-04-06T05:59:24;6.17;;;5.57;;
2564;SDS011;1292;48.020;7.822;2023-04-06T06:01:51;9.60;;;5.87;;
2564;SDS011;1292;48.020;7.822;2023-04-06T06:04:19;8.20;;;6.10;;
2564;SDS011;1292;48.020;7.822;2023-04-06T06:06:45;9.33;;;6.17;;
2564;SDS011;1292;48.020;7.822;2023-04-06T06:09:12;8.43;;;5.70;;
2564;SDS011;1292;48.020;7.822;2023-04-06T06:11:39;7.03;;;6.33;;
2564;SDS011;1292;48.020;7.822;2023-04-06T06:14:06;6.70;;;6.00;;
2564;SDS011;1292;48.020;7.822;2023-04-06T06:16:33;6.93;;;6.13;;
2564;SDS011;1292;48.020;7.822;2023-04-06T06:19:00;7.20;;;5.60;;
2564;SDS011;1292;48.020;7.822;2023-04-06T06:21:28;6.10;;;5.60;;
2564;SDS011;1292;48.020;7.822;2023-04-06T06:23:55;7.83;;;5.70;;
2564;SDS011;1292;48.020;7.822;2023-04-06T06:26:22;10.93;;;6.30;;
2564;SDS011;1292;48.020;7.822;2023-04-06T06:28:49;7.40;;;6.40;;
2564;SDS011;1292;48.020;7.822;2023-04-06T06:31:15;9.23;;;8.23;;
2564;SDS011;1292;48.020;7.822;2023-04-06T06:33:45;9.80;;;8.50;;
2564;SDS011;1292;48.020;7.822;2023-04-06T06:36:15;8.03;;;7.07;;
2564;SDS011;1292;48.020;7.822;2023-04-06T06:38:43;7.77;;;5.60;;
2564;SDS011;1292;48.020;7.822;2023-04-06T06:41:10;7.63;;;6.83;;
2564;SDS011;1292;48.020;7.822;2023-04-06T06:43:38;5.83;;;5.30;;
2564;SDS011;1292;48.020;7.822;2023-04-06T06:46:05;9.00;;;6.03;;
2564;SDS011;1292;48.020;7.822;2023-04-06T06:48:31;5.70;;;4.23;;
2564;SDS011;1292;48.020;7.822;2023-04-06T06:50:58;10.80;;;4.77;;
2564;SDS011;1292;48.020;7.822;2023-04-06T06:53:25;8.80;;;6.07;;
2564;SDS011;1292;48.020;7.822;2023-04-06T06:55:53;7.87;;;6.60;;
2564;SDS011;1292;48.020;7.822;2023-04-06T06:58:21;5.97;;;5.37;;
2564;SDS011;1292;48.020;7.822;2023-04-06T07:00:47;6.37;;;4.77;;
2564;SDS011;1292;48.020;7.822;2023-04-06T07:03:14;9.70;;;5.03;;
2564;SDS011;1292;48.020;7.822;2023-04-06T07:05:44;6.20;;;5.60;;
2564;SDS011;1292;48.020;7.822;2023-04-06T07:08:14;5.37;;;4.43;;
2564;SDS011;1292;48.020;7.822;2023-04-06T07:10:40;5.47;;;4.40;;
2564;SDS011;1292;48.020;7.822;2023-04-06T07:13:08;6.30;;;5.07;;
2564;SDS011;1292;48.020;7.822;2023-04-06T07:15:35;5.37;;;4.60;;
2564;SDS011;1292;48.020;7.822;2023-04-06T07:18:02;5.13;;;4.73;;
2564;SDS011;1292;48.020;7.822;2023-04-06T07:20:29;5.03;;;4.53;;
2564;SDS011;1292;48.020;7.822;2023-04-06T07:22:56;7.70;;;4.50;;
2564;SDS011;1292;48.020;7.822;2023-04-06T07:25:23;5.53;;;4.33;;
2564;SDS011;1292;48.020;7.822;2023-04-06T07:27:49;6.13;;;5.07;;
2564;SDS011;1292;48.020;7.822;2023-04-06T07:30:17;6.40;;;4.80;;
2564;SDS011;1292;48.020;7.822;2023-04-06T07:32:45;7.40;;;5.00;;
2564;SDS011;1292;48.020;7.822;2023-04-06T07:35:12;7.87;;;5.63;;
2564;SDS011;1292;48.020;7.822;2023-04-06T07:37:38;5.90;;;5.10;;
2564;SDS011;1292;48.020;7.822;2023-04-06T07:40:06;7.13;;;5.33;;
2564;SDS011;1292;48.020;7.822;2023-04-06T07:42:33;7.10;;;5.93;;
2564;SDS011;1292;48.020;7.822;2023-04-06T07:45:00;9.47;;;5.57;;
2564;SDS011;1292;48.020;7.822;2023-04-06T07:47:28;10.37;;;5.10;;
2564;SDS011;1292;48.020;7.822;2023-04-06T07:49:55;4.80;;;4.40;;
2564;SDS011;1292;48.020;7.822;2023-04-06T07:52:22;4.97;;;4.43;;
2564;SDS011;1292;48.020;7.822;2023-04-06T07:54:49;7.63;;;4.63;;
2564;SDS011;1292;48.020;7.822;2023-04-06T07:57:16;8.70;;;5.27;;
2564;SDS011;1292;48.020;7.822;2023-04-06T07:59:43;4.60;;;4.20;;
2564;SDS011;1292;48.020;7.822;2023-04-06T08:02:10;7.47;;;4.97;;
2564;SDS011;1292;48.020;7.822;2023-04-06T08:04:38;5.27;;;4.77;;
2564;SDS011;1292;48.020;7.822;2023-04-06T08:07:05;7.60;;;5.50;;
2564;SDS011;1292;48.020;7.822;2023-04-06T08:09:32;5.27;;;4.53;;
2564;SDS011;1292;48.020;7.822;2023-04-06T08:11:59;5.33;;;4.27;;
2564;SDS011;1292;48.020;7.822;2023-04-06T08:14:26;6.57;;;5.10;;
2564;SDS011;1292;48.020;7.822;2023-04-06T08:16:53;6.80;;;4.27;;
2564;SDS011;1292;48.020;7.822;2023-04-06T08:19:20;5.90;;;5.10;;
2564;SDS011;1292;48.020;7.822;2023-04-06T08:21:48;5.80;;;4.77;;
2564;SDS011;1292;48.020;7.822;2023-04-06T08:24:16;12.10;;;4.93;;
2564;SDS011;1292;48.020;7.822;2023-04-06T08:26:43;5.13;;;4.40;;
2564;SDS011;1292;48.020;7.822;2023-04-06T08:29:09;5.97;;;4.33;;
2564;SDS011;1292;48.020;7.822;2023-04-06T08:31:36;4.13;;;3.70;;
2564;SDS011;1292;48.020;7.822;2023-04-06T08:34:03;4.60;;;4.20;;
2564;SDS011;1292;48.020;7.822;2023-04-06T08:36:31;7.17;;;4.77;;
2564;SDS011;1292;48.020;7.822;2023-04-06T08:39:00;6.80;;;5.30;;
2564;SDS011;1292;48.020;7.822;2023-04-06T08:41:27;6.07;;;4.77;;
2564;SDS011;1292;48.020;7.822;2023-04-06T08:43:56;6.83;;;4.93;;
2564;SDS011;1292;48.020;7.822;2023-04-06T08:46:24;6.20;;;4.97;;
2564;SDS011;1292;48.020;7.822;2023-04-06T08:48:55;5.03;;;4.47;;
2564;SDS011;1292;48.020;7.822;2023-04-06T08:51:22;5.07;;;4.67;;
2564;SDS011;1292;48.020;7.822;2023-04-06T08:53:50;5.50;;;4.83;;
2564;SDS011;1292;48.020;7.822;2023-04-06T08:56:20;5.47;;;4.97;;
2564;SDS011;1292;48.020;7.822;2023-04-06T08:58:48;7.63;;;4.90;;
2564;SDS011;1292;48.020;7.822;2023-04-06T09:01:17;6.27;;;4.87;;
2564;SDS011;1292;48.020;7.822;2023-04-06T09:03:46;5.90;;;4.97;;
2564;SDS011;1292;48.020;7.822;2023-04-06T09:06:15;6.70;;;5.37;;
2564;SDS011;1292;48.020;7.822;2023-04-06T09:08:42;5.57;;;4.57;;
2564;SDS011;1292;48.020;7.822;2023-04-06T09:11:10;5.27;;;4.77;;
2564;SDS011;1292;48.020;7.822;2023-04-06T09:13:48;8.23;;;4.47;;
2564;SDS011;1292;48.020;7.822;2023-04-06T09:16:16;9.50;;;5.80;;
2564;SDS011;1292;48.020;7.822;2023-04-06T09:18:44;6.07;;;5.30;;
2564;SDS011;1292;48.020;7.822;2023-04-06T09:21:12;5.00;;;4.50;;
2564;SDS011;1292;48.020;7.822;2023-04-06T09:23:39;5.20;;;4.63;;
2564;SDS011;1292;48.020;7.822;2023-04-06T09:26:06;6.57;;;4.60;;
2564;SDS011;1292;48.020;7.822;2023-04-06T09:28:41;6.20;;;5.60;;
2564;SDS011;1292;48.020;7.822;2023-04-06T09:31:10;4.93;;;4.43;;
2564;SDS011;1292;48.020;7.822;2023-04-06T09:33:37;8.03;;;4.43;;
2564;SDS011;1292;48.020;7.822;2023-04-06T09:36:05;7.13;;;5.50;;
2564;SDS011;1292;48.020;7.822;2023-04-06T09:38:34;6.17;;;5.00;;
2564;SDS011;1292;48.020;7.822;2023-04-06T09:41:02;5.50;;;4.50;;
2564;SDS011;1292;48.020;7.822;2023-04-06T09:43:29;6.30;;;5.47;;
2564;SDS011;1292;48.020;7.822;2023-04-06T09:45:56;7.37;;;5.97;;
2564;SDS011;1292;48.020;7.822;2023-04-06T09:48:25;5.70;;;5.10;;
2564;SDS011;1292;48.020;7.822;2023-04-06T09:50:55;5.90;;;4.80;;
2564;SDS011;1292;48.020;7.822;2023-04-06T09:53:26;9.10;;;5.70;;
2564;SDS011;1292;48.020;7.822;2023-04-06T09:55:55;10.33;;;5.40;;
2564;SDS011;1292;48.020;7.822;2023-04-06T09:58:27;7.30;;;5.60;;
2564;SDS011;1292;48.020;7.822;2023-04-06T10:01:01;5.87;;;5.03;;
2564;SDS011;1292;48.020;7.822;2023-04-06T10:03:35;6.90;;;5.60;;
2564;SDS011;1292;48.020;7.822;2023-04-06T10:06:09;6.30;;;4.70;;
2564;SDS011;1292;48.020;7.822;2023-04-06T10:08:38;6.30;;;5.20;;
2564;SDS011;1292;48.020;7.822;2023-04-06T10:11:07;6.50;;;5.60;;
2564;SDS011;1292;48.020;7.822;2023-04-06T10:13:34;6.33;;;5.70;;
2564;SDS011;1292;48.020;7.822;2023-04-06T10:16:02;7.60;;;4.80;;
2564;SDS011;1292;48.020;7.822;2023-04-06T10:18:30;5.30;;;4.50;;
2564;SDS011;1292;48.020;7.822;2023-04-06T10:21:00;6.30;;;5.70;;
2564;SDS011;1292;48.020;7.822;2023-04-06T10:23:32;9.10;;;4.90;;
2564;SDS011;1292;48.020;7.822;2023-04-06T10:26:02;6.67;;;5.50;;
2564;SDS011;1292;48.020;7.822;2023-04-06T10:28:30;8.00;;;5.03;;
2564;SDS011;1292;48.020;7.822;2023-04-06T10:30:58;6.53;;;5.90;;
2564;SDS011;1292;48.020;7.822;2023-04-06T10:33:25;5.17;;;4.67;;
2564;SDS011;1292;48.020;7.822;2023-04-06T10:35:52;5.70;;;5.20;;
2564;SDS011;1292;48.020;7.822;2023-04-06T10:38:20;7.83;;;4.67;;
2564;SDS011;1292;48.020;7.822;2023-04-06T10:40:49;6.43;;;4.43;;
2564;SDS011;1292;48.020;7.822;2023-04-06T10:43:18;4.90;;;4.13;;
2564;SDS011;1292;48.020;7.822;2023-04-06T10:45:52;6.87;;;4.53;;
2564;SDS011;1292;48.020;7.822;2023-04-06T10:48:21;7.57;;;5.50;;
2564;SDS011;1292;48.020;7.822;2023-04-06T10:50:49;6.17;;;4.50;;
2564;SDS011;1292;48.020;7.822;2023-04-06T10:53:22;6.00;;;4.73;;
2564;SDS011;1292;48.020;7.822;2023-04-06T10:55:50;8.97;;;4.60;;
2564;SDS011;1292;48.020;7.822;2023-04-06T10:58:17;7.00;;;5.30;;
2564;SDS011;1292;48.020;7.822;2023-04-06T11:00:45;6.37;;;4.70;;
2564;SDS011;1292;48.020;7.822;2023-04-06T11:03:12;5.43;;;4.10;;
2564;SDS011;1292;48.020;7.822;2023-04-06T11:05:42;4.60;;;3.83;;
2564;SDS011;1292;48.020;7.822;2023-04-06T11:08:09;4.10;;;3.47;;
2564;SDS011;1292;48.020;7.822;2023-04-06T11:10:38;8.20;;;4.10;;
2564;SDS011;1292;48.020;7.822;2023-04-06T11:13:04;5.00;;;4.10;;
2564;SDS011;1292;48.020;7.822;2023-04-06T11:15:33;8.03;;;4.57;;
2564;SDS011;1292;48.020;7.822;2023-04-06T11:18:03;3.27;;;3.00;;
2564;SDS011;1292;48.020;7.822;2023-04-06T11:20:30;7.60;;;3.90;;
2564;SDS011;1292;48.020;7.822;2023-04-06T11:22:57;4.50;;;3.70;;
2564;SDS011;1292;48.020;7.822;2023-04-06T11:25:24;5.40;;;4.27;;
2564;SDS011;1292;48.020;7.822;2023-04-06T11:27:53;7.80;;;4.77;;
2564;SDS011;1292;48.020;7.822;2023-04-06T11:30:20;4.63;;;4.13;;
2564;SDS011;1292;48.020;7.822;2023-04-06T11:32:47;4.47;;;3.80;;
2564;SDS011;1292;48.020;7.822;2023-04-06T11:35:19;7.20;;;4.20;;
2564;SDS011;1292;48.020;7.822;2023-04-06T11:37:47;5.70;;;4.33;;
2564;SDS011;1292;48.020;7.822;2023-04-06T11:40:15;8.23;;;4.43;;
2564;SDS011;1292;48.020;7.822;2023-04-06T11:42:51;6.33;;;3.97;;
2564;SDS011;1292;48.020;7.822;2023-04-06T11:45:20;6.97;;;4.70;;
2564;SDS011;1292;48.020;7.822;2023-04-06T11:47:54;4.23;;;3.83;;
2564;SDS011;1292;48.020;7.822;2023-04-06T11:50:23;6.20;;;4.37;;
2564;SDS011;1292;48.020;7.822;2023-04-06T11:52:57;6.80;;;4.57;;
2564;SDS011;1292;48.020;7.822;2023-04-06T11:55:25;5.43;;;4.10;;
2564;SDS011;1292;48.020;7.822;2023-04-06T11:57:53;9.10;;;5.77;;
2564;SDS011;1292;48.020;7.822;2023-04-06T12:00:20;4.00;;;3.60;;
2564;SDS011;1292;48.020;7.822;2023-04-06T12:02:48;5.20;;;3.80;;
2564;SDS011;1292;48.020;7.822;2023-04-06T12:05:15;8.30;;;4.20;;
2564;SDS011;1292;48.020;7.822;2023-04-06T12:07:42;4.90;;;4.27;;
2564;SDS011;1292;48.020;7.822;2023-04-06T12:10:09;6.47;;;4.43;;
2564;SDS011;1292;48.020;7.822;2023-04-06T12:12:36;4.77;;;4.37;;
2564;SDS011;1292;48.020;7.822;2023-04-06T12:15:05;5.20;;;3.60;;
2564;SDS011;1292;48.020;7.822;2023-04-06T12:17:33;4.40;;;4.00;;
2564;SDS011;1292;48.020;7.822;2023-04-06T12:19:59;6.60;;;5.17;;
2564;SDS011;1292;48.020;7.822;2023-04-06T12:22:26;4.53;;;4.13;;
2564;SDS011;1292;48.020;7.822;2023-04-06T12:24:53;6.23;;;4.70;;
2564;SDS011;1292;48.020;7.822;2023-04-06T12:27:20;4.77;;;3.90;;
2564;SDS011;1292;48.020;7.822;2023-04-06T12:29:47;8.37;;;5.23;;
2564;SDS011;1292;48.020;7.822;2023-04-06T12:32:15;5.90;;;4.10;;
2564;SDS011;1292;48.020;7.822;2023-04-06T12:34:41;4.83;;;3.80;;
2564;SDS011;1292;48.020;7.822;2023-04-06T12:37:08;4.30;;;3.90;;
2564;SDS011;1292;48.020;7.822;2023-04-06T12:39:35;5.53;;;4.50;;
2564;SDS011;1292;48.020;7.822;2023-04-06T12:42:02;6.20;;;4.57;;
2564;SDS011;1292;48.020;7.822;2023-04-06T12:44:29;5.67;;;4.13;;
2564;SDS011;1292;48.020;7.822;2023-04-06T12:46:56;5.87;;;4.10;;
2564;SDS011;1292;48.020;7.822;2023-04-06T12:49:24;6.13;;;4.03;;
2564;SDS011;1292;48.020;7.822;2023-04-06T12:51:52;5.93;;;4.47;;
2564;SDS011;1292;48.020;7.822;2023-04-06T12:54:18;5.07;;;4.30;;
2564;SDS011;1292;48.020;7.822;2023-04-06T12:56:45;4.83;;;4.27;;
2564;SDS011;1292;48.020;7.822;2023-04-06T12:59:12;5.07;;;3.90;;
2564;SDS011;1292;48.020;7.822;2023-04-06T13:01:39;5.57;;;4.13;;
2564;SDS011;1292;48.020;7.822;2023-04-06T13:04:06;4.33;;;3.67;;
2564;SDS011;1292;48.020;7.822;2023-04-06T13:06:34;6.83;;;4.87;;
2564;SDS011;1292;48.020;7.822;2023-04-06T13:09:01;5.63;;;4.90;;
2564;SDS011;1292;48.020;7.822;2023-04-06T13:11:29;5.90;;;4.70;;
2564;SDS011;1292;48.020;7.822;2023-04-06T13:13:56;5.10;;;4.27;;
2564;SDS011;1292;48.020;7.822;2023-04-06T13:16:23;4.37;;;3.90;;
2564;SDS011;1292;48.020;7.822;2023-04-06T13:18:49;7.10;;;4.47;;
2564;SDS011;1292;48.020;7.822;2023-04-06T13:21:16;5.80;;;3.80;;
2564;SDS011;1292;48.020;7.822;2023-04-06T13:23:47;4.30;;;3.73;;
2564;SDS011;1292;48.020;7.822;2023-04-06T13:26:13;4.37;;;3.33;;
2564;SDS011;1292;48.020;7.822;2023-04-06T13:28:41;7.20;;;4.60;;
2564;SDS011;1292;48.020;7.822;2023-04-06T13:31:08;6.33;;;3.83;;
2564;SDS011;1292;48.020;7.822;2023-04-06T13:33:35;4.50;;;3.80;;
2564;SDS011;1292;48.020;7.822;2023-04-06T13:36:03;5.00;;;4.03;;
2564;SDS011;1292;48.020;7.822;2023-04-06T13:38:32;4.63;;;3.83;;
2564;SDS011;1292;48.020;7.822;2023-04-06T13:41:00;4.47;;;4.03;;
2564;SDS011;1292;48.020;7.822;2023-04-06T13:43:27;5.40;;;3.57;;
2564;SDS011;1292;48.020;7.822;2023-04-06T13:45:54;4.83;;;3.97;;
2564;SDS011;1292;48.020;7.822;2023-04-06T13:48:23;5.07;;;4.57;;
2564;SDS011;1292;48.020;7.822;2023-04-06T13:50:50;6.17;;;4.90;;
2564;SDS011;1292;48.020;7.822;2023-04-06T13:53:17;6.40;;;4.00;;
2564;SDS011;1292;48.020;7.822;2023-04-06T13:55:51;7.33;;;4.20;;
2564;SDS011;1292;48.020;7.822;2023-04-06T13:58:20;4.63;;;3.80;;
2564;SDS011;1292;48.020;7.822;2023-04-06T14:00:47;4.23;;;3.60;;
2564;SDS011;1292;48.020;7.822;2023-04-06T14:03:13;4.73;;;3.60;;
2564;SDS011;1292;48.020;7.822;2023-04-06T14:05:40;5.43;;;3.70;;
2564;SDS011;1292;48.020;7.822;2023-04-06T14:08:07;4.10;;;3.70;;
2564;SDS011;1292;48.020;7.822;2023-04-06T14:10:36;5.33;;;4.40;;
2564;SDS011;1292;48.020;7.822;2023-04-06T14:13:03;9.30;;;4.00;;
2564;SDS011;1292;48.020;7.822;2023-04-06T14:15:31;8.43;;;4.40;;
2564;SDS011;1292;48.020;7.822;2023-04-06T14:17:58;4.80;;;3.97;;
2564;SDS011;1292;48.020;7.822;2023-04-06T14:20:25;5.90;;;4.87;;
2564;SDS011;1292;48.020;7.822;2023-04-06T14:22:52;8.70;;;4.07;;
2564;SDS011;1292;48.020;7.822;2023-04-06T14:25:20;6.30;;;4.30;;
2564;SDS011;1292;48.020;7.822;2023-04-06T14:27:47;5.47;;;3.97;;
2564;SDS011;1292;48.020;7.822;2023-04-06T14:30:14;6.07;;;3.80;;
2564;SDS011;1292;48.020;7.822;2023-04-06T14:32:42;5.20;;;3.73;;
2564;SDS011;1292;48.020;7.822;2023-04-06T14:35:09;4.53;;;3.77;;
2564;SDS011;1292;48.020;7.822;2023-04-06T14:37:36;9.10;;;4.63;;
2564;SDS011;1292;48.020;7.822;2023-04-06T14:40:03;7.37;;;4.13;;
2564;SDS011;1292;48.020;7.822;2023-04-06T14:42:30;4.30;;;3.70;;
2564;SDS011;1292;48.020;7.822;2023-04-06T14:44:58;6.10;;;4.07;;
2564;SDS011;1292;48.020;7.822;2023-04-06T14:47:25;4.80;;;4.30;;
2564;SDS011;1292;48.020;7.822;2023-04-06T14:49:53;6.40;;;4.63;;
2564;SDS011;1292;48.020;7.822;2023-04-06T14:52:20;6.87;;;4.33;;
2564;SDS011;1292;48.020;7.822;2023-04-06T14:54:47;6.30;;;4.67;;
2564;SDS011;1292;48.020;7.822;2023-04-06T14:57:13;5.50;;;4.30;;
2564;SDS011;1292;48.020;7.822;2023-04-06T14:59:40;5.03;;;4.63;;
2564;SDS011;1292;48.020;7.822;2023-04-06T15:02:07;4.90;;;4.40;;
2564;SDS011;1292;48.020;7.822;2023-04-06T15:04:34;6.13;;;3.73;;
2564;SDS011;1292;48.020;7.822;2023-04-06T15:07:02;4.33;;;3.70;;
2564;SDS011;1292;48.020;7.822;2023-04-06T15:09:29;5.37;;;3.90;;
2564;SDS011;1292;48.020;7.822;2023-04-06T15:11:56;5.93;;;4.87;;
2564;SDS011;1292;48.020;7.822;2023-04-06T15:14:23;4.40;;;3.90;;
2564;SDS011;1292;48.020;7.822;2023-04-06T15:16:50;4.20;;;3.67;;
2564;SDS011;1292;48.020;7.822;2023-04-06T15:19:16;8.30;;;3.80;;
2564;SDS011;1292;48.020;7.822;2023-04-06T15:21:43;4.40;;;3.87;;
2564;SDS011;1292;48.020;7.822;2023-04-06T15:24:11;6.40;;;4.10;;
2564;SDS011;1292;48.020;7.822;2023-04-06T15:26:38;7.23;;;5.37;;
2564;SDS011;1292;48.020;7.822;2023-04-06T15:29:05;5.90;;;4.30;;
2564;SDS011;1292;48.020;7.822;2023-04-06T15:31:32;9.57;;;4.50;;
2564;SDS011;1292;48.020;7.822;2023-04-06T15:33:59;4.60;;;4.20;;
2564;SDS011;1292;48.020;7.822;2023-04-06T15:36:27;6.40;;;4.70;;
2564;SDS011;1292;48.020;7.822;2023-04-06T15:38:55;5.60;;;4.67;;
2564;SDS011;1292;48.020;7.822;2023-04-06T15:41:23;5.07;;;4.27;;
2564;SDS011;1292;48.020;7.822;2023-04-06T15:43:50;4.70;;;3.77;;
2564;SDS011;1292;48.020;7.822;2023-04-06T15:46:17;5.60;;;4.40;;
2564;SDS011;1292;48.020;7.822;2023-04-06T15:48:44;4.93;;;4.07;;
2564;SDS011;1292;48.020;7.822;2023-04-06T15:51:12;6.53;;;4.97;;
2564;SDS011;1292;48.020;7.822;2023-04-06T15:53:39;5.80;;;5.20;;
2564;SDS011;1292;48.020;7.822;2023-04-06T15:56:06;7.00;;;5.03;;
2564;SDS011;1292;48.020;7.822;2023-04-06T15:58:35;7.10;;;4.33;;
2564;SDS011;1292;48.020;7.822;2023-04-06T16:01:09;5.73;;;4.47;;
2564;SDS011;1292;48.020;7.822;2023-04-06T16:03:38;5.50;;;4.50;;
2564;SDS011;1292;48.020;7.822;2023-04-06T16:06:05;6.87;;;4.73;;
2564;SDS011;1292;48.020;7.822;2023-04-06T16:08:32;9.67;;;7.23;;
2564;SDS011;1292;48.020;7.822;2023-04-06T16:10:58;8.10;;;6.60;;
2564;SDS011;1292;48.020;7.822;2023-04-06T16:13:25;13.23;;;5.80;;
2564;SDS011;1292;48.020;7.822;2023-04-06T16:15:53;6.93;;;4.63;;
2564;SDS011;1292;48.020;7.822;2023-04-06T16:18:20;5.43;;;3.67;;
2564;SDS011;1292;48.020;7.822;2023-04-06T16:20:48;7.70;;;4.40;;
2564;SDS011;1292;48.020;7.822;2023-04-06T16:23:14;7.13;;;5.83;;
2564;SDS011;1292;48.020;7.822;2023-04-06T16:25:41;5.03;;;4.30;;
2564;SDS011;1292;48.020;7.822;2023-04-06T16:28:08;5.10;;;4.60;;
2564;SDS011;1292;48.020;7.822;2023-04-06T16:30:35;6.90;;;6.20;;
2564;SDS011;1292;48.020;7.822;2023-04-06T16:33:03;6.40;;;5.57;;
2564;SDS011;1292;48.020;7.822;2023-04-06T16:35:30;6.13;;;5.53;;
2564;SDS011;1292;48.020;7.822;2023-04-06T16:37:58;4.70;;;3.93;;
2564;SDS011;1292;48.020;7.822;2023-04-06T16:40:25;4.60;;;3.07;;
2564;SDS011;1292;48.020;7.822;2023-04-06T16:42:52;3.50;;;3.20;;
2564;SDS011;1292;48.020;7.822;2023-04-06T16:45:20;3.33;;;3.13;;
2564;SDS011;1292;48.020;7.822;2023-04-06T16:47:47;3.63;;;3.30;;
2564;SDS011;1292;48.020;7.822;2023-04-06T16:50:15;8.03;;;6.23;;
2564;SDS011;1292;48.020;7.822;2023-04-06T16:52:42;3.47;;;3.17;;
2564;SDS011;1292;48.020;7.822;2023-04-06T16:55:09;4.20;;;3.23;;
2564;SDS011;1292;48.020;7.822;2023-04-06T16:57:37;3.80;;;3.50;;
2564;SDS011;1292;48.020;7.822;2023-04-06T17:00:04;3.40;;;3.10;;
2564;SDS011;1292;48.020;7.822;2023-04-06T17:02:33;3.80;;;3.50;;
2564;SDS011;1292;48.020;7.822;2023-04-06T17:05:01;5.73;;;4.10;;
2564;SDS011;1292;48.020;7.822;2023-04-06T17:07:29;5.50;;;3.90;;
2564;SDS011;1292;48.020;7.822;2023-04-06T17:09:58;5.60;;;4.57;;
2564;SDS011;1292;48.020;7.822;2023-04-06T17:12:26;5.20;;;4.27;;
2564;SDS011;1292;48.020;7.822;2023-04-06T17:14:53;4.13;;;3.73;;
2564;SDS011;1292;48.020;7.822;2023-04-06T17:17:20;5.73;;;4.97;;
2564;SDS011;1292;48.020;7.822;2023-04-06T17:19:47;6.33;;;5.60;;
2564;SDS011;1292;48.020;7.822;2023-04-06T17:22:14;7.93;;;6.40;;
2564;SDS011;1292;48.020;7.822;2023-04-06T17:24:46;6.40;;;5.40;;
2564;SDS011;1292;48.020;7.822;2023-04-06T17:27:13;4.23;;;3.83;;
2564;SDS011;1292;48.020;7.822;2023-04-06T17:29:40;4.43;;;4.03;;
2564;SDS011;1292;48.020;7.822;2023-04-06T17:32:07;4.90;;;4.37;;
2564;SDS011;1292;48.020;7.822;2023-04-06T17:34:33;9.13;;;8.33;;
2564;SDS011;1292;48.020;7.822;2023-04-06T17:37:00;7.50;;;5.30;;
2564;SDS011;1292;48.020;7.822;2023-04-06T17:39:27;5.00;;;4.50;;
2564;SDS011;1292;48.020;7.822;2023-04-06T17:41:56;6.30;;;4.60;;
2564;SDS011;1292;48.020;7.822;2023-04-06T17:44:23;4.57;;;4.00;;
2564;SDS011;1292;48.020;7.822;2023-04-06T17:46:50;6.30;;;4.50;;
2564;SDS011;1292;48.020;7.822;2023-04-06T17:49:17;6.20;;;4.60;;
2564;SDS011;1292;48.020;7.822;2023-04-06T17:51:44;5.27;;;3.70;;
2564;SDS011;1292;48.020;7.822;2023-04-06T17:54:11;6.50;;;4.90;;
2564;SDS011;1292;48.020;7.822;2023-04-06T17:56:38;4.83;;;3.90;;
2564;SDS011;1292;48.020;7.822;2023-04-06T17:59:06;4.07;;;3.67;;
2564;SDS011;1292;48.020;7.822;2023-04-06T18:01:35;7.90;;;4.90;;
2564;SDS011;1292;48.020;7.822;2023-04-06T18:04:02;4.83;;;4.33;;
2564;SDS011;1292;48.020;7.822;2023-04-06T18:06:29;5.07;;;3.67;;
2564;SDS011;1292;48.020;7.822;2023-04-06T18:08:57;5.00;;;4.47;;
2564;SDS011;1292;48.020;7.822;2023-04-06T18:11:24;5.00;;;3.90;;
2564;SDS011;1292;48.020;7.822;2023-04-06T18:13:54;8.30;;;7.50;;
2564;SDS011;1292;48.020;7.822;2023-04-06T18:16:22;6.90;;;6.30;;
2564;SDS011;1292;48.020;7.822;2023-04-06T18:18:49;8.13;;;7.47;;
2564;SDS011;1292;48.020;7.822;2023-04-06T18:21:16;5.20;;;4.80;;
2564;SDS011;1292;48.020;7.822;2023-04-06T18:23:43;7.37;;;5.87;;
2564;SDS011;1292;48.020;7.822;2023-04-06T18:26:13;5.77;;;4.37;;
2564;SDS011;1292;48.020;7.822;2023-04-06T18:28:41;4.10;;;3.80;;
2564;SDS011;1292;48.020;7.822;2023-04-06T18:31:08;6.33;;;5.80;;
2564;SDS011;1292;48.020;7.822;2023-04-06T18:33:36;9.03;;;6.27;;
2564;SDS011;1292;48.020;7.822;2023-04-06T18:36:04;6.20;;;5.60;;
2564;SDS011;1292;48.020;7.822;2023-04-06T18:38:31;7.60;;;4.60;;
2564;SDS011;1292;48.020;7.822;2023-04-06T18:40:58;6.30;;;4.37;;
2564;SDS011;1292;48.020;7.822;2023-04-06T18:43:25;4.53;;;4.13;;
2564;SDS011;1292;48.020;7.822;2023-04-06T18:45:52;4.13;;;3.73;;
2564;SDS011;1292;48.020;7.822;2023-04-06T18:48:19;5.83;;;3.37;;
2564;SDS011;1292;48.020;7.822;2023-04-06T18:50:53;3.97;;;3.20;;
2564;SDS011;1292;48.020;7.822;2023-04-06T18:53:25;4.00;;;3.30;;
2564;SDS011;1292;48.020;7.822;2023-04-06T18:55:52;4.37;;;3.20;;
2564;SDS011;1292;48.020;7.822;2023-04-06T18:58:21;4.83;;;3.20;;
2564;SDS011;1292;48.020;7.822;2023-04-06T19:00:49;3.67;;;3.23;;
2564;SDS011;1292;48.020;7.822;2023-04-06T19:03:15;3.83;;;3.43;;
2564;SDS011;1292;48.020;7.822;2023-04-06T19:05:42;4.57;;;4.17;;
2564;SDS011;1292;48.020;7.822;2023-04-06T19:08:10;4.43;;;3.70;;
2564;SDS011;1292;48.020;7.822;2023-04-06T19:10:37;4.87;;;3.70;;
2564;SDS011;1292;48.020;7.822;2023-04-06T19:13:04;5.70;;;3.63;;
2564;SDS011;1292;48.020;7.822;2023-04-06T19:15:31;3.73;;;3.43;;
2564;SDS011;1292;48.020;7.822;2023-04-06T19:17:58;3.33;;;3.00;;
2564;SDS011;1292;48.020;7.822;2023-04-06T19:20:25;3.73;;;3.30;;
2564;SDS011;1292;48.020;7.822;2023-04-06T19:22:52;4.23;;;3.30;;
2564;SDS011;1292;48.020;7.822;2023-04-06T19:25:20;4.53;;;4.13;;
2564;SDS011;1292;48.020;7.822;2023-04-06T19:27:47;4.07;;;3.67;;
2564;SDS011;1292;48.020;7.822;2023-04-06T19:30:13;2.60;;;2.40;;
2564;SDS011;1292;48.020;7.822;2023-04-06T19:32:40;6.30;;;3.03;;
2564;SDS011;1292;48.020;7.822;2023-04-06T19:35:08;3.90;;;3.50;;
2564;SDS011;1292;48.020;7.822;2023-04-06T19:37:35;4.17;;;3.13;;
2564;SDS011;1292;48.020;7.822;2023-04-06T19:40:03;3.87;;;3.07;;
2564;SDS011;1292;48.020;7.822;2023-04-06T19:42:35;7.27;;;5.60;;
2564;SDS011;1292;48.020;7.822;2023-04-06T19:45:03;5.10;;;4.70;;
2564;SDS011;1292;48.020;7.822;2023-04-06T19:47:30;5.07;;;4.63;;
2564;SDS011;1292;48.020;7.822;2023-04-06T19:49:58;5.73;;;4.57;;
2564;SDS011;1292;48.020;7.822;2023-04-06T19:52:25;4.70;;;4.30;;
2564;SDS011;1292;48.020;7.822;2023-04-06T19:54:52;4.77;;;3.40;;
2564;SDS011;1292;48.020;7.822;2023-04-06T19:57:19;6.20;;;4.33;;
2564;SDS011;1292;48.020;7.822;2023-04-06T19:59:48;7.27;;;3.93;;
2564;SDS011;1292;48.020;7.822;2023-04-06T20:02:15;4.40;;;4.00;;
2564;SDS011;1292;48.020;7.822;2023-04-06T20:04:42;5.30;;;4.00;;
2564;SDS011;1292;48.020;7.822;2023-04-06T20:07:09;4.63;;;4.23;;
2564;SDS011;1292;48.020;7.822;2023-04-06T20:09:36;4.40;;;3.67;;
2564;SDS011;1292;48.020;7.822;2023-04-06T20:12:03;3.87;;;3.37;;
2564;SDS011;1292;48.020;7.822;2023-04-06T20:14:30;6.63;;;3.20;;
2564;SDS011;1292;48.020;7.822;2023-04-06T20:16:58;3.60;;;3.30;;
2564;SDS011;1292;48.020;7.822;2023-04-06T20:19:25;3.67;;;3.00;;
2564;SDS011;1292;48.020;7.822;2023-04-06T20:21:52;5.17;;;4.67;;
2564;SDS011;1292;48.020;7.822;2023-04-06T20:24:19;5.23;;;4.60;;
2564;SDS011;1292;48.020;7.822;2023-04-06T20:26:46;3.83;;;3.47;;
2564;SDS011;1292;48.020;7.822;2023-04-06T20:29:14;3.27;;;2.97;;
2564;SDS011;1292;48.020;7.822;2023-04-06T20:31:42;2.70;;;2.40;;
2564;SDS011;1292;48.020;7.822;2023-04-06T20:34:10;3.27;;;2.97;;
2564;SDS011;1292;48.020;7.822;2023-04-06T20:36:37;3.57;;;3.27;;
2564;SDS011;1292;48.020;7.822;2023-04-06T20:39:04;3.87;;;3.57;;
2564;SDS011;1292;48.020;7.822;2023-04-06T20:41:31;3.67;;;3.37;;
2564;SDS011;1292;48.020;7.822;2023-04-06T20:43:58;3.53;;;3.17;;
2564;SDS011;1292;48.020;7.822;2023-04-06T20:46:25;3.23;;;3.00;;
2564;SDS011;1292;48.020;7.822;2023-04-06T20:48:52;2.97;;;2.67;;
2564;SDS011;1292;48.020;7.822;2023-04-06T20:51:21;3.23;;;2.93;;
2564;SDS011;1292;48.020;7.822;2023-04-06T20:53:48;4.07;;;3.40;;
2564;SDS011;1292;48.020;7.822;2023-04-06T20:56:16;5.03;;;3.70;;
2564;SDS011;1292;48.020;7.822;2023-04-06T20:58:43;3.80;;;3.50;;
